sensor_id;sensor_type;location;lat;lon;timestamp;P1;durP1;ratioP1;P2;durP2;ratioP2
40373;SDS011;26079;45.958;12.492;2023-04-24T00:00:46;13.07;;;11.73;;
40373;SDS011;26079;45.958;12.492;2023-04-24T00:03:12;17.48;;;11.98;;
40373;SDS011;26079;45.958;12.492;2023-04-24T00:05:37;13.48;;;11.50;;
40373;SDS011;26079;45.958;12.492;2023-04-24T00:08:05;13.18;;;11.27;;
40373;SDS011;26079;45.958;12.492;2023-04-24T00:10:31;11.65;;;10.43;;
40373;SDS011;26079;45.958;12.492;2023-04-24T00:12:56;13.18;;;11.88;;
40373;SDS011;26079;45.958;12.492;2023-04-24T00:15:22;26.80;;;13.50;;
40373;SDS011;26079;45.958;12.492;2023-04-24T00:17:48;14.90;;;11.18;;
40373;SDS011;26079;45.958;12.492;2023-04-24T00:20:14;12.68;;;10.27;;
40373;SDS011;26079;45.958;12.492;2023-04-24T00:22:40;14.50;;;11.18;;
40373;SDS011;26079;45.958;12.492;2023-04-24T00:25:05;12.70;;;10.15;;
40373;SDS011;26079;45.958;12.492;2023-04-24T00:27:31;10.98;;;9.93;;
40373;SDS011;26079;45.958;12.492;2023-04-24T00:29:57;11.48;;;10.35;;
40373;SDS011;26079;45.958;12.492;2023-04-24T00:32:23;11.77;;;9.52;;
40373;SDS011;26079;45.958;12.492;2023-04-24T00:34:48;11.57;;;9.32;;
40373;SDS011;26079;45.958;12.492;2023-04-24T00:37:14;11.55;;;10.35;;
40373;SDS011;26079;45.958;12.492;2023-04-24T00:39:40;9.15;;;8.23;;
40373;SDS011;26079;45.958;12.492;2023-04-24T00:42:06;13.02;;;9.32;;
40373;SDS011;26079;45.958;12.492;2023-04-24T00:44:35;9.43;;;8.43;;
40373;SDS011;26079;45.958;12.492;2023-04-24T00:47:00;10.65;;;9.63;;
40373;SDS011;26079;45.958;12.492;2023-04-24T00:49:26;8.98;;;8.15;;
40373;SDS011;26079;45.958;12.492;2023-04-24T00:51:52;9.77;;;8.30;;
40373;SDS011;26079;45.958;12.492;2023-04-24T00:54:19;9.80;;;8.35;;
40373;SDS011;26079;45.958;12.492;2023-04-24T00:56:45;10.45;;;8.00;;
40373;SDS011;26079;45.958;12.492;2023-04-24T00:59:16;11.82;;;8.82;;
40373;SDS011;26079;45.958;12.492;2023-04-24T01:01:42;7.82;;;7.10;;
40373;SDS011;26079;45.958;12.492;2023-04-24T01:04:09;10.23;;;8.07;;
40373;SDS011;26079;45.958;12.492;2023-04-24T01:06:38;9.93;;;7.82;;
40373;SDS011;26079;45.958;12.492;2023-04-24T01:09:04;8.13;;;7.32;;
40373;SDS011;26079;45.958;12.492;2023-04-24T01:11:30;7.97;;;7.22;;
40373;SDS011;26079;45.958;12.492;2023-04-24T01:13:56;10.25;;;6.57;;
40373;SDS011;26079;45.958;12.492;2023-04-24T01:16:22;9.50;;;7.82;;
40373;SDS011;26079;45.958;12.492;2023-04-24T01:18:48;13.25;;;7.57;;
40373;SDS011;26079;45.958;12.492;2023-04-24T01:21:14;8.10;;;7.40;;
40373;SDS011;26079;45.958;12.492;2023-04-24T01:23:43;8.45;;;7.65;;
40373;SDS011;26079;45.958;12.492;2023-04-24T01:26:10;9.88;;;7.00;;
40373;SDS011;26079;45.958;12.492;2023-04-24T01:28:36;7.20;;;6.35;;
40373;SDS011;26079;45.958;12.492;2023-04-24T01:31:02;8.48;;;6.85;;
40373;SDS011;26079;45.958;12.492;2023-04-24T01:33:28;11.95;;;7.78;;
40373;SDS011;26079;45.958;12.492;2023-04-24T01:35:54;9.52;;;7.03;;
40373;SDS011;26079;45.958;12.492;2023-04-24T01:38:20;7.07;;;6.38;;
40373;SDS011;26079;45.958;12.492;2023-04-24T01:40:46;9.60;;;6.65;;
40373;SDS011;26079;45.958;12.492;2023-04-24T01:43:12;7.38;;;6.68;;
40373;SDS011;26079;45.958;12.492;2023-04-24T01:45:38;6.78;;;5.97;;
40373;SDS011;26079;45.958;12.492;2023-04-24T01:48:04;8.02;;;6.80;;
40373;SDS011;26079;45.958;12.492;2023-04-24T01:50:30;7.50;;;6.80;;
40373;SDS011;26079;45.958;12.492;2023-04-24T01:52:56;7.75;;;6.97;;
40373;SDS011;26079;45.958;12.492;2023-04-24T01:55:21;7.10;;;6.40;;
40373;SDS011;26079;45.958;12.492;2023-04-24T01:57:47;8.27;;;6.65;;
40373;SDS011;26079;45.958;12.492;2023-04-24T02:00:13;6.88;;;5.82;;
40373;SDS011;26079;45.958;12.492;2023-04-24T02:02:39;7.47;;;6.68;;
40373;SDS011;26079;45.958;12.492;2023-04-24T02:05:06;14.18;;;6.32;;
40373;SDS011;26079;45.958;12.492;2023-04-24T02:07:32;6.50;;;5.88;;
40373;SDS011;26079;45.958;12.492;2023-04-24T02:09:58;6.30;;;5.70;;
40373;SDS011;26079;45.958;12.492;2023-04-24T02:12:24;8.98;;;6.47;;
40373;SDS011;26079;45.958;12.492;2023-04-24T02:14:50;6.85;;;6.07;;
40373;SDS011;26079;45.958;12.492;2023-04-24T02:17:15;9.00;;;5.85;;
40373;SDS011;26079;45.958;12.492;2023-04-24T02:19:42;6.80;;;6.20;;
40373;SDS011;26079;45.958;12.492;2023-04-24T02:22:07;6.60;;;6.00;;
40373;SDS011;26079;45.958;12.492;2023-04-24T02:24:33;6.65;;;6.03;;
40373;SDS011;26079;45.958;12.492;2023-04-24T02:26:59;6.53;;;5.90;;
40373;SDS011;26079;45.958;12.492;2023-04-24T02:29:25;8.15;;;5.85;;
40373;SDS011;26079;45.958;12.492;2023-04-24T02:31:50;6.70;;;5.95;;
40373;SDS011;26079;45.958;12.492;2023-04-24T02:34:16;5.47;;;4.97;;
40373;SDS011;26079;45.958;12.492;2023-04-24T02:36:42;5.43;;;4.93;;
40373;SDS011;26079;45.958;12.492;2023-04-24T02:39:07;6.30;;;5.65;;
40373;SDS011;26079;45.958;12.492;2023-04-24T02:41:33;7.85;;;6.30;;
40373;SDS011;26079;45.958;12.492;2023-04-24T02:43:59;6.72;;;5.18;;
40373;SDS011;26079;45.958;12.492;2023-04-24T02:46:25;6.18;;;4.68;;
40373;SDS011;26079;45.958;12.492;2023-04-24T02:48:51;5.28;;;4.68;;
40373;SDS011;26079;45.958;12.492;2023-04-24T02:51:17;6.38;;;5.28;;
40373;SDS011;26079;45.958;12.492;2023-04-24T02:53:42;4.43;;;4.03;;
40373;SDS011;26079;45.958;12.492;2023-04-24T02:56:08;7.45;;;4.82;;
40373;SDS011;26079;45.958;12.492;2023-04-24T02:58:37;9.65;;;5.15;;
40373;SDS011;26079;45.958;12.492;2023-04-24T03:01:03;5.25;;;4.82;;
40373;SDS011;26079;45.958;12.492;2023-04-24T03:03:28;8.70;;;4.40;;
40373;SDS011;26079;45.958;12.492;2023-04-24T03:05:54;10.18;;;5.95;;
40373;SDS011;26079;45.958;12.492;2023-04-24T03:08:22;5.03;;;4.60;;
40373;SDS011;26079;45.958;12.492;2023-04-24T03:10:47;5.05;;;4.63;;
40373;SDS011;26079;45.958;12.492;2023-04-24T03:13:13;5.57;;;4.75;;
40373;SDS011;26079;45.958;12.492;2023-04-24T03:15:40;6.22;;;5.18;;
40373;SDS011;26079;45.958;12.492;2023-04-24T03:18:05;5.25;;;4.47;;
40373;SDS011;26079;45.958;12.492;2023-04-24T03:20:31;5.18;;;4.68;;
40373;SDS011;26079;45.958;12.492;2023-04-24T03:22:56;5.70;;;5.10;;
40373;SDS011;26079;45.958;12.492;2023-04-24T03:25:22;5.32;;;4.82;;
40373;SDS011;26079;45.958;12.492;2023-04-24T03:27:48;7.15;;;5.35;;
40373;SDS011;26079;45.958;12.492;2023-04-24T03:30:13;5.70;;;4.57;;
40373;SDS011;26079;45.958;12.492;2023-04-24T03:32:39;6.70;;;5.70;;
40373;SDS011;26079;45.958;12.492;2023-04-24T03:35:06;6.15;;;5.43;;
40373;SDS011;26079;45.958;12.492;2023-04-24T03:37:33;16.05;;;5.55;;
40373;SDS011;26079;45.958;12.492;2023-04-24T03:39:58;7.95;;;5.20;;
40373;SDS011;26079;45.958;12.492;2023-04-24T03:42:24;6.03;;;5.43;;
40373;SDS011;26079;45.958;12.492;2023-04-24T03:44:50;7.25;;;5.30;;
40373;SDS011;26079;45.958;12.492;2023-04-24T03:47:15;8.88;;;6.82;;
40373;SDS011;26079;45.958;12.492;2023-04-24T03:49:41;10.75;;;5.55;;
40373;SDS011;26079;45.958;12.492;2023-04-24T03:52:07;6.65;;;5.72;;
40373;SDS011;26079;45.958;12.492;2023-04-24T03:54:32;6.32;;;5.57;;
40373;SDS011;26079;45.958;12.492;2023-04-24T03:56:58;6.15;;;5.55;;
40373;SDS011;26079;45.958;12.492;2023-04-24T03:59:23;10.27;;;6.85;;
40373;SDS011;26079;45.958;12.492;2023-04-24T04:01:49;6.97;;;5.85;;
40373;SDS011;26079;45.958;12.492;2023-04-24T04:04:15;6.13;;;5.40;;
40373;SDS011;26079;45.958;12.492;2023-04-24T04:06:40;6.78;;;5.60;;
40373;SDS011;26079;45.958;12.492;2023-04-24T04:09:07;6.30;;;4.88;;
40373;SDS011;26079;45.958;12.492;2023-04-24T04:11:33;6.55;;;5.85;;
40373;SDS011;26079;45.958;12.492;2023-04-24T04:14:00;7.65;;;5.40;;
40373;SDS011;26079;45.958;12.492;2023-04-24T04:16:26;11.98;;;5.78;;
40373;SDS011;26079;45.958;12.492;2023-04-24T04:18:51;6.65;;;5.28;;
40373;SDS011;26079;45.958;12.492;2023-04-24T04:21:18;7.78;;;5.63;;
40373;SDS011;26079;45.958;12.492;2023-04-24T04:23:44;10.52;;;5.72;;
40373;SDS011;26079;45.958;12.492;2023-04-24T04:26:10;7.05;;;5.95;;
40373;SDS011;26079;45.958;12.492;2023-04-24T04:28:37;5.95;;;4.90;;
40373;SDS011;26079;45.958;12.492;2023-04-24T04:31:04;6.40;;;5.80;;
40373;SDS011;26079;45.958;12.492;2023-04-24T04:33:29;5.45;;;4.90;;
40373;SDS011;26079;45.958;12.492;2023-04-24T04:35:56;8.55;;;5.47;;
40373;SDS011;26079;45.958;12.492;2023-04-24T04:38:22;5.45;;;4.95;;
40373;SDS011;26079;45.958;12.492;2023-04-24T04:40:48;8.52;;;5.28;;
40373;SDS011;26079;45.958;12.492;2023-04-24T04:43:14;6.88;;;6.28;;
40373;SDS011;26079;45.958;12.492;2023-04-24T04:45:41;7.03;;;6.18;;
40373;SDS011;26079;45.958;12.492;2023-04-24T04:48:08;7.32;;;4.95;;
40373;SDS011;26079;45.958;12.492;2023-04-24T04:50:37;6.60;;;5.00;;
40373;SDS011;26079;45.958;12.492;2023-04-24T04:53:03;6.53;;;5.75;;
40373;SDS011;26079;45.958;12.492;2023-04-24T04:55:29;8.02;;;5.30;;
40373;SDS011;26079;45.958;12.492;2023-04-24T04:57:55;10.35;;;5.30;;
40373;SDS011;26079;45.958;12.492;2023-04-24T05:00:21;6.05;;;4.68;;
40373;SDS011;26079;45.958;12.492;2023-04-24T05:02:47;7.30;;;5.10;;
40373;SDS011;26079;45.958;12.492;2023-04-24T05:05:12;5.38;;;4.85;;
40373;SDS011;26079;45.958;12.492;2023-04-24T05:07:38;5.07;;;4.43;;
40373;SDS011;26079;45.958;12.492;2023-04-24T05:10:03;6.30;;;4.95;;
40373;SDS011;26079;45.958;12.492;2023-04-24T05:12:29;5.93;;;4.57;;
40373;SDS011;26079;45.958;12.492;2023-04-24T05:14:55;9.25;;;4.85;;
40373;SDS011;26079;45.958;12.492;2023-04-24T05:17:21;5.13;;;4.68;;
40373;SDS011;26079;45.958;12.492;2023-04-24T05:19:46;8.13;;;6.32;;
40373;SDS011;26079;45.958;12.492;2023-04-24T05:22:13;7.78;;;5.72;;
40373;SDS011;26079;45.958;12.492;2023-04-24T05:24:38;9.52;;;5.93;;
40373;SDS011;26079;45.958;12.492;2023-04-24T05:27:04;8.02;;;6.20;;
40373;SDS011;26079;45.958;12.492;2023-04-24T05:29:30;8.95;;;5.70;;
40373;SDS011;26079;45.958;12.492;2023-04-24T05:31:58;7.82;;;5.82;;
40373;SDS011;26079;45.958;12.492;2023-04-24T05:34:24;7.65;;;5.85;;
40373;SDS011;26079;45.958;12.492;2023-04-24T05:36:50;11.35;;;7.07;;
40373;SDS011;26079;45.958;12.492;2023-04-24T05:39:16;6.95;;;5.82;;
40373;SDS011;26079;45.958;12.492;2023-04-24T05:41:42;9.35;;;5.95;;
40373;SDS011;26079;45.958;12.492;2023-04-24T05:44:08;10.70;;;7.50;;
40373;SDS011;26079;45.958;12.492;2023-04-24T05:46:33;9.82;;;6.80;;
40373;SDS011;26079;45.958;12.492;2023-04-24T05:49:00;9.88;;;6.72;;
40373;SDS011;26079;45.958;12.492;2023-04-24T05:51:25;9.75;;;6.72;;
40373;SDS011;26079;45.958;12.492;2023-04-24T05:53:51;7.22;;;6.05;;
40373;SDS011;26079;45.958;12.492;2023-04-24T05:56:17;10.10;;;7.45;;
40373;SDS011;26079;45.958;12.492;2023-04-24T05:58:43;7.00;;;6.40;;
40373;SDS011;26079;45.958;12.492;2023-04-24T06:01:10;9.82;;;6.82;;
40373;SDS011;26079;45.958;12.492;2023-04-24T06:03:37;10.30;;;7.57;;
40373;SDS011;26079;45.958;12.492;2023-04-24T06:06:04;7.68;;;6.97;;
40373;SDS011;26079;45.958;12.492;2023-04-24T06:08:31;8.73;;;6.80;;
40373;SDS011;26079;45.958;12.492;2023-04-24T06:10:56;12.00;;;7.38;;
40373;SDS011;26079;45.958;12.492;2023-04-24T06:13:22;9.32;;;6.93;;
40373;SDS011;26079;45.958;12.492;2023-04-24T06:15:48;11.25;;;8.65;;
40373;SDS011;26079;45.958;12.492;2023-04-24T06:18:13;9.93;;;8.32;;
40373;SDS011;26079;45.958;12.492;2023-04-24T06:20:39;12.60;;;8.85;;
40373;SDS011;26079;45.958;12.492;2023-04-24T06:23:05;12.20;;;9.93;;
40373;SDS011;26079;45.958;12.492;2023-04-24T06:25:30;11.65;;;8.93;;
40373;SDS011;26079;45.958;12.492;2023-04-24T06:27:56;13.00;;;8.27;;
40373;SDS011;26079;45.958;12.492;2023-04-24T06:30:22;15.40;;;9.80;;
40373;SDS011;26079;45.958;12.492;2023-04-24T06:32:48;13.10;;;9.45;;
40373;SDS011;26079;45.958;12.492;2023-04-24T06:35:14;11.70;;;7.78;;
40373;SDS011;26079;45.958;12.492;2023-04-24T06:37:40;12.93;;;11.57;;
40373;SDS011;26079;45.958;12.492;2023-04-24T06:40:07;18.90;;;16.02;;
40373;SDS011;26079;45.958;12.492;2023-04-24T06:42:33;15.20;;;11.85;;
40373;SDS011;26079;45.958;12.492;2023-04-24T06:45:00;9.95;;;8.93;;
40373;SDS011;26079;45.958;12.492;2023-04-24T06:47:26;11.70;;;8.13;;
40373;SDS011;26079;45.958;12.492;2023-04-24T06:49:52;9.60;;;8.07;;
40373;SDS011;26079;45.958;12.492;2023-04-24T06:52:18;11.18;;;9.45;;
40373;SDS011;26079;45.958;12.492;2023-04-24T06:54:44;9.68;;;8.02;;
40373;SDS011;26079;45.958;12.492;2023-04-24T06:57:10;10.55;;;9.38;;
40373;SDS011;26079;45.958;12.492;2023-04-24T06:59:36;7.57;;;6.78;;
40373;SDS011;26079;45.958;12.492;2023-04-24T07:02:02;13.35;;;9.70;;
40373;SDS011;26079;45.958;12.492;2023-04-24T07:04:28;10.55;;;7.40;;
40373;SDS011;26079;45.958;12.492;2023-04-24T07:06:54;10.00;;;7.72;;
40373;SDS011;26079;45.958;12.492;2023-04-24T07:09:21;9.45;;;8.00;;
40373;SDS011;26079;45.958;12.492;2023-04-24T07:11:48;9.40;;;7.75;;
40373;SDS011;26079;45.958;12.492;2023-04-24T07:14:15;12.82;;;8.85;;
40373;SDS011;26079;45.958;12.492;2023-04-24T07:16:41;14.93;;;12.05;;
40373;SDS011;26079;45.958;12.492;2023-04-24T07:19:07;8.82;;;7.97;;
40373;SDS011;26079;45.958;12.492;2023-04-24T07:21:33;11.02;;;7.55;;
40373;SDS011;26079;45.958;12.492;2023-04-24T07:23:59;12.98;;;8.90;;
40373;SDS011;26079;45.958;12.492;2023-04-24T07:26:25;10.02;;;7.90;;
40373;SDS011;26079;45.958;12.492;2023-04-24T07:28:52;13.32;;;9.50;;
40373;SDS011;26079;45.958;12.492;2023-04-24T07:31:17;13.85;;;7.63;;
40373;SDS011;26079;45.958;12.492;2023-04-24T07:33:43;9.10;;;8.30;;
40373;SDS011;26079;45.958;12.492;2023-04-24T07:36:09;10.05;;;8.00;;
40373;SDS011;26079;45.958;12.492;2023-04-24T07:38:40;10.10;;;8.25;;
40373;SDS011;26079;45.958;12.492;2023-04-24T07:41:07;9.70;;;8.38;;
40373;SDS011;26079;45.958;12.492;2023-04-24T07:43:32;11.23;;;8.15;;
40373;SDS011;26079;45.958;12.492;2023-04-24T07:45:58;9.63;;;8.38;;
40373;SDS011;26079;45.958;12.492;2023-04-24T07:48:24;9.40;;;8.48;;
40373;SDS011;26079;45.958;12.492;2023-04-24T07:50:51;10.63;;;7.80;;
40373;SDS011;26079;45.958;12.492;2023-04-24T07:53:17;9.48;;;8.10;;
40373;SDS011;26079;45.958;12.492;2023-04-24T07:55:43;9.50;;;7.75;;
40373;SDS011;26079;45.958;12.492;2023-04-24T07:58:08;8.85;;;7.95;;
40373;SDS011;26079;45.958;12.492;2023-04-24T08:00:34;11.43;;;8.95;;
40373;SDS011;26079;45.958;12.492;2023-04-24T08:03:00;11.88;;;8.88;;
40373;SDS011;26079;45.958;12.492;2023-04-24T08:05:26;10.23;;;7.53;;
40373;SDS011;26079;45.958;12.492;2023-04-24T08:07:53;18.10;;;8.30;;
40373;SDS011;26079;45.958;12.492;2023-04-24T08:10:19;10.05;;;8.55;;
40373;SDS011;26079;45.958;12.492;2023-04-24T08:12:46;11.32;;;8.50;;
40373;SDS011;26079;45.958;12.492;2023-04-24T08:15:12;10.20;;;9.23;;
40373;SDS011;26079;45.958;12.492;2023-04-24T08:17:37;10.77;;;9.38;;
40373;SDS011;26079;45.958;12.492;2023-04-24T08:20:03;10.80;;;9.52;;
40373;SDS011;26079;45.958;12.492;2023-04-24T08:22:30;14.23;;;9.40;;
40373;SDS011;26079;45.958;12.492;2023-04-24T08:24:57;10.13;;;8.48;;
40373;SDS011;26079;45.958;12.492;2023-04-24T08:27:25;10.23;;;9.20;;
40373;SDS011;26079;45.958;12.492;2023-04-24T08:29:52;10.70;;;8.57;;
40373;SDS011;26079;45.958;12.492;2023-04-24T08:32:19;12.95;;;10.40;;
40373;SDS011;26079;45.958;12.492;2023-04-24T08:34:44;9.05;;;8.32;;
40373;SDS011;26079;45.958;12.492;2023-04-24T08:37:10;11.15;;;10.07;;
40373;SDS011;26079;45.958;12.492;2023-04-24T08:39:37;16.40;;;8.52;;
40373;SDS011;26079;45.958;12.492;2023-04-24T08:42:02;7.50;;;6.57;;
40373;SDS011;26079;45.958;12.492;2023-04-24T08:44:31;9.50;;;8.60;;
40373;SDS011;26079;45.958;12.492;2023-04-24T08:46:57;10.20;;;8.90;;
40373;SDS011;26079;45.958;12.492;2023-04-24T08:49:24;11.75;;;10.10;;
40373;SDS011;26079;45.958;12.492;2023-04-24T08:51:50;10.75;;;8.70;;
40373;SDS011;26079;45.958;12.492;2023-04-24T08:54:18;10.15;;;9.00;;
40373;SDS011;26079;45.958;12.492;2023-04-24T08:56:44;12.77;;;10.60;;
40373;SDS011;26079;45.958;12.492;2023-04-24T08:59:13;12.00;;;9.63;;
40373;SDS011;26079;45.958;12.492;2023-04-24T09:01:39;10.50;;;8.82;;
40373;SDS011;26079;45.958;12.492;2023-04-24T09:04:07;9.82;;;8.82;;
40373;SDS011;26079;45.958;12.492;2023-04-24T09:06:37;9.10;;;7.00;;
40373;SDS011;26079;45.958;12.492;2023-04-24T09:09:04;6.80;;;6.07;;
40373;SDS011;26079;45.958;12.492;2023-04-24T09:11:30;5.35;;;4.85;;
40373;SDS011;26079;45.958;12.492;2023-04-24T09:13:57;4.40;;;4.10;;
40373;SDS011;26079;45.958;12.492;2023-04-24T09:16:25;3.80;;;3.42;;
40373;SDS011;26079;45.958;12.492;2023-04-24T09:18:51;3.88;;;2.33;;
40373;SDS011;26079;45.958;12.492;2023-04-24T09:21:18;2.25;;;1.95;;
40373;SDS011;26079;45.958;12.492;2023-04-24T09:23:46;1.27;;;1.17;;
40373;SDS011;26079;45.958;12.492;2023-04-24T09:26:24;1.38;;;1.25;;
40373;SDS011;26079;45.958;12.492;2023-04-24T09:28:50;1.10;;;1.00;;
40373;SDS011;26079;45.958;12.492;2023-04-24T09:31:18;0.98;;;0.70;;
40373;SDS011;26079;45.958;12.492;2023-04-24T09:33:53;1.17;;;1.08;;
40373;SDS011;26079;45.958;12.492;2023-04-24T09:36:19;1.10;;;0.88;;
40373;SDS011;26079;45.958;12.492;2023-04-24T09:38:59;3.58;;;1.08;;
40373;SDS011;26079;45.958;12.492;2023-04-24T09:41:26;4.63;;;2.20;;
40373;SDS011;26079;45.958;12.492;2023-04-24T09:43:56;1.63;;;1.17;;
40373;SDS011;26079;45.958;12.492;2023-04-24T09:46:32;1.95;;;1.67;;
40373;SDS011;26079;45.958;12.492;2023-04-24T09:48:58;1.67;;;1.10;;
40373;SDS011;26079;45.958;12.492;2023-04-24T09:51:40;1.33;;;1.23;;
40373;SDS011;26079;45.958;12.492;2023-04-24T09:54:16;1.05;;;0.90;;
40373;SDS011;26079;45.958;12.492;2023-04-24T09:56:45;1.13;;;1.00;;
40373;SDS011;26079;45.958;12.492;2023-04-24T09:59:13;0.88;;;0.85;;
40373;SDS011;26079;45.958;12.492;2023-04-24T10:01:39;4.15;;;1.20;;
40373;SDS011;26079;45.958;12.492;2023-04-24T10:04:14;1.20;;;1.10;;
40373;SDS011;26079;45.958;12.492;2023-04-24T10:06:51;1.95;;;1.20;;
40373;SDS011;26079;45.958;12.492;2023-04-24T10:09:18;1.08;;;0.95;;
40373;SDS011;26079;45.958;12.492;2023-04-24T10:11:47;2.00;;;0.70;;
40373;SDS011;26079;45.958;12.492;2023-04-24T10:14:14;2.85;;;1.65;;
40373;SDS011;26079;45.958;12.492;2023-04-24T10:16:45;5.57;;;2.92;;
40373;SDS011;26079;45.958;12.492;2023-04-24T10:19:12;3.20;;;2.53;;
40373;SDS011;26079;45.958;12.492;2023-04-24T10:21:43;3.10;;;1.15;;
40373;SDS011;26079;45.958;12.492;2023-04-24T10:24:13;2.63;;;1.00;;
40373;SDS011;26079;45.958;12.492;2023-04-24T10:26:40;1.02;;;0.98;;
40373;SDS011;26079;45.958;12.492;2023-04-24T10:29:07;1.90;;;1.10;;
40373;SDS011;26079;45.958;12.492;2023-04-24T10:31:35;1.65;;;1.33;;
40373;SDS011;26079;45.958;12.492;2023-04-24T10:34:03;3.58;;;2.58;;
40373;SDS011;26079;45.958;12.492;2023-04-24T10:36:30;7.50;;;4.50;;
40373;SDS011;26079;45.958;12.492;2023-04-24T10:38:59;3.60;;;2.40;;
40373;SDS011;26079;45.958;12.492;2023-04-24T10:41:27;8.43;;;1.83;;
40373;SDS011;26079;45.958;12.492;2023-04-24T10:44:08;1.65;;;1.40;;
40373;SDS011;26079;45.958;12.492;2023-04-24T10:46:35;1.55;;;1.10;;
40373;SDS011;26079;45.958;12.492;2023-04-24T10:49:05;5.57;;;1.52;;
40373;SDS011;26079;45.958;12.492;2023-04-24T10:59:48;1.40;;;0.77;;
40373;SDS011;26079;45.958;12.492;2023-04-24T11:02:15;1.02;;;0.93;;
40373;SDS011;26079;45.958;12.492;2023-04-24T11:04:42;2.97;;;2.55;;
40373;SDS011;26079;45.958;12.492;2023-04-24T11:07:09;0.93;;;0.73;;
40373;SDS011;26079;45.958;12.492;2023-04-24T11:09:35;2.40;;;2.20;;
40373;SDS011;26079;45.958;12.492;2023-04-24T11:12:08;2.25;;;2.03;;
40373;SDS011;26079;45.958;12.492;2023-04-24T11:15:12;1.27;;;1.08;;
40373;SDS011;26079;45.958;12.492;2023-04-24T11:17:35;1.60;;;0.70;;
40373;SDS011;26079;45.958;12.492;2023-04-24T11:20:16;0.82;;;0.75;;
40373;SDS011;26079;45.958;12.492;2023-04-24T11:22:42;0.82;;;0.82;;
40373;SDS011;26079;45.958;12.492;2023-04-24T11:25:08;1.30;;;0.50;;
40373;SDS011;26079;45.958;12.492;2023-04-24T11:27:43;2.60;;;0.80;;
40373;SDS011;26079;45.958;12.492;2023-04-24T11:30:11;7.45;;;5.97;;
40373;SDS011;26079;45.958;12.492;2023-04-24T11:32:38;5.95;;;1.27;;
40373;SDS011;26079;45.958;12.492;2023-04-24T11:37:40;1.13;;;1.02;;
40373;SDS011;26079;45.958;12.492;2023-04-24T11:40:14;1.08;;;0.77;;
40373;SDS011;26079;45.958;12.492;2023-04-24T11:42:42;4.63;;;1.02;;
40373;SDS011;26079;45.958;12.492;2023-04-24T11:45:10;1.30;;;1.13;;
40373;SDS011;26079;45.958;12.492;2023-04-24T11:47:36;2.13;;;1.80;;
40373;SDS011;26079;45.958;12.492;2023-04-24T11:50:03;2.55;;;2.35;;
40373;SDS011;26079;45.958;12.492;2023-04-24T11:52:30;1.88;;;1.77;;
40373;SDS011;26079;45.958;12.492;2023-04-24T11:54:56;3.05;;;2.10;;
40373;SDS011;26079;45.958;12.492;2023-04-24T11:57:23;4.20;;;2.67;;
40373;SDS011;26079;45.958;12.492;2023-04-24T11:59:52;4.68;;;1.73;;
40373;SDS011;26079;45.958;12.492;2023-04-24T12:02:25;4.22;;;3.50;;
40373;SDS011;26079;45.958;12.492;2023-04-24T12:04:55;15.55;;;10.82;;
40373;SDS011;26079;45.958;12.492;2023-04-24T12:07:21;1.15;;;1.02;;
40373;SDS011;26079;45.958;12.492;2023-04-24T12:09:48;2.70;;;1.75;;
40373;SDS011;26079;45.958;12.492;2023-04-24T12:12:25;3.42;;;1.92;;
40373;SDS011;26079;45.958;12.492;2023-04-24T12:14:53;1.80;;;1.20;;
40373;SDS011;26079;45.958;12.492;2023-04-24T12:17:30;1.42;;;1.10;;
40373;SDS011;26079;45.958;12.492;2023-04-24T12:19:58;2.47;;;2.28;;
40373;SDS011;26079;45.958;12.492;2023-04-24T12:22:25;0.95;;;0.65;;
40373;SDS011;26079;45.958;12.492;2023-04-24T12:27:26;1.17;;;0.85;;
40373;SDS011;26079;45.958;12.492;2023-04-24T12:29:57;1.38;;;1.27;;
40373;SDS011;26079;45.958;12.492;2023-04-24T12:32:24;1.33;;;0.47;;
40373;SDS011;26079;45.958;12.492;2023-04-24T12:34:50;0.50;;;0.40;;
40373;SDS011;26079;45.958;12.492;2023-04-24T12:37:17;1.05;;;0.70;;
40373;SDS011;26079;45.958;12.492;2023-04-24T12:42:36;1.08;;;0.70;;
40373;SDS011;26079;45.958;12.492;2023-04-24T12:45:07;0.98;;;0.80;;
40373;SDS011;26079;45.958;12.492;2023-04-24T12:47:33;0.60;;;0.60;;
40373;SDS011;26079;45.958;12.492;2023-04-24T12:50:00;1.55;;;1.20;;
40373;SDS011;26079;45.958;12.492;2023-04-24T12:52:26;0.93;;;0.93;;
40373;SDS011;26079;45.958;12.492;2023-04-24T12:54:53;1.80;;;1.10;;
40373;SDS011;26079;45.958;12.492;2023-04-24T12:57:20;1.05;;;0.88;;
40373;SDS011;26079;45.958;12.492;2023-04-24T12:59:46;2.90;;;1.02;;
40373;SDS011;26079;45.958;12.492;2023-04-24T13:02:12;1.20;;;0.93;;
40373;SDS011;26079;45.958;12.492;2023-04-24T13:04:38;4.32;;;1.10;;
40373;SDS011;26079;45.958;12.492;2023-04-24T13:07:04;1.88;;;0.93;;
40373;SDS011;26079;45.958;12.492;2023-04-24T13:09:30;1.15;;;1.05;;
40373;SDS011;26079;45.958;12.492;2023-04-24T13:11:56;2.15;;;0.98;;
40373;SDS011;26079;45.958;12.492;2023-04-24T13:14:22;1.30;;;1.02;;
40373;SDS011;26079;45.958;12.492;2023-04-24T13:16:48;0.80;;;0.73;;
40373;SDS011;26079;45.958;12.492;2023-04-24T13:19:14;2.20;;;0.85;;
40373;SDS011;26079;45.958;12.492;2023-04-24T13:21:40;1.38;;;0.88;;
40373;SDS011;26079;45.958;12.492;2023-04-24T13:24:06;2.10;;;1.23;;
40373;SDS011;26079;45.958;12.492;2023-04-24T13:26:32;1.08;;;0.98;;
40373;SDS011;26079;45.958;12.492;2023-04-24T13:28:58;1.67;;;1.40;;
40373;SDS011;26079;45.958;12.492;2023-04-24T13:31:24;1.60;;;1.50;;
40373;SDS011;26079;45.958;12.492;2023-04-24T13:33:50;2.83;;;1.50;;
40373;SDS011;26079;45.958;12.492;2023-04-24T13:36:15;1.70;;;1.30;;
40373;SDS011;26079;45.958;12.492;2023-04-24T13:38:42;2.35;;;1.48;;
40373;SDS011;26079;45.958;12.492;2023-04-24T13:41:11;1.77;;;1.55;;
40373;SDS011;26079;45.958;12.492;2023-04-24T13:43:37;2.47;;;1.73;;
40373;SDS011;26079;45.958;12.492;2023-04-24T13:46:02;2.50;;;2.30;;
40373;SDS011;26079;45.958;12.492;2023-04-24T13:48:28;3.40;;;1.85;;
40373;SDS011;26079;45.958;12.492;2023-04-24T13:50:55;2.50;;;2.30;;
40373;SDS011;26079;45.958;12.492;2023-04-24T13:53:20;2.15;;;1.30;;
40373;SDS011;26079;45.958;12.492;2023-04-24T13:55:46;0.85;;;0.77;;
40373;SDS011;26079;45.958;12.492;2023-04-24T13:58:18;1.83;;;0.65;;
40373;SDS011;26079;45.958;12.492;2023-04-24T14:00:44;0.80;;;0.65;;
40373;SDS011;26079;45.958;12.492;2023-04-24T14:03:10;0.47;;;0.45;;
40373;SDS011;26079;45.958;12.492;2023-04-24T14:05:36;0.68;;;0.25;;
40373;SDS011;26079;45.958;12.492;2023-04-24T14:08:01;2.50;;;0.43;;
40373;SDS011;26079;45.958;12.492;2023-04-24T14:10:27;0.98;;;0.45;;
40373;SDS011;26079;45.958;12.492;2023-04-24T14:12:53;1.05;;;0.40;;
40373;SDS011;26079;45.958;12.492;2023-04-24T14:15:19;1.70;;;0.80;;
40373;SDS011;26079;45.958;12.492;2023-04-24T14:17:44;0.57;;;0.52;;
40373;SDS011;26079;45.958;12.492;2023-04-24T14:20:11;1.83;;;0.90;;
40373;SDS011;26079;45.958;12.492;2023-04-24T14:22:37;1.08;;;0.88;;
40373;SDS011;26079;45.958;12.492;2023-04-24T14:25:04;1.45;;;0.90;;
40373;SDS011;26079;45.958;12.492;2023-04-24T14:27:39;1.52;;;0.93;;
40373;SDS011;26079;45.958;12.492;2023-04-24T14:30:07;0.93;;;0.82;;
40373;SDS011;26079;45.958;12.492;2023-04-24T14:32:33;1.00;;;0.90;;
40373;SDS011;26079;45.958;12.492;2023-04-24T14:34:59;1.10;;;1.00;;
40373;SDS011;26079;45.958;12.492;2023-04-24T14:37:27;2.03;;;1.40;;
40373;SDS011;26079;45.958;12.492;2023-04-24T14:39:52;2.50;;;1.60;;
40373;SDS011;26079;45.958;12.492;2023-04-24T14:42:18;2.90;;;1.95;;
40373;SDS011;26079;45.958;12.492;2023-04-24T14:44:44;1.58;;;1.48;;